Aviation Digital Data Service (ADDS)

Output produced by METARs form (0419 UTC 26 May 2018)
found at http://aviationweather.gov/adds/metars/
 
Forecast for: RKJK (KUNSAN (US/KOR-A, KR)
Text: TAF RKJK 252300Z 2523/2705 VRB06KT 9999 SKC QNH2974INS WND 30009KT AFT 2609
Forecast period: 2300 UTC 25 May 2018 to 1300 UTC 26 May 2018
Forecast type: FROM: standard forecast or significant change
Winds: variable direction winds at 7 MPH (6 knots; 3.1 m/s)
Visibility: 6 or more miles (10+ km)
Clouds: clear skies
Weather: no significant weather forecast for this period
Text: BECMG 2613/2614 VRB06KT 9999 SCT200 QNH2976INS TX24/2604Z TN12/2620Z LIMITED METWATCH 2523 TILL 2607
Forecast period: 1300 UTC 26 May 2018 to 0500 UTC 27 May 2018
Forecast type: BECOMING: Conditions expected to become as follows by 1400 UTC 26 May 2018
Winds: variable direction winds at 7 MPH (6 knots; 3.1 m/s)
Visibility: 6 or more miles (10+ km)
Clouds: scattered clouds at 20000 feet AGL
Weather: no significant weather forecast for this period